createdAt,value
2022-08-09T00:01:10.671Z,42.48
2022-08-09T00:04:06.192Z,42.76
2022-08-09T00:06:29.021Z,42.87
2022-08-09T00:08:59.042Z,42.87
2022-08-09T00:11:27.837Z,42.92
2022-08-09T00:14:21.868Z,43.12
2022-08-09T00:16:54.905Z,43.13
2022-08-09T00:19:21.693Z,43.26
2022-08-09T00:21:56.655Z,43.26
2022-08-09T00:24:27.548Z,43.26
2022-08-09T00:26:54.974Z,43.42
2022-08-09T00:30:10.159Z,43.51
2022-08-09T00:32:08.536Z,43.68
2022-08-09T00:34:39.576Z,43.86
2022-08-09T00:37:13.235Z,43.94
2022-08-09T00:40:12.078Z,43.83
2022-08-09T00:44:24.739Z,43.92
2022-08-09T00:45:16.299Z,44.33
2022-08-09T00:47:43.619Z,44.15
2022-08-09T00:50:14.659Z,44.25
2022-08-09T00:52:42.188Z,44.38
2022-08-09T00:55:16.795Z,44.56
2022-08-09T00:57:59.268Z,44.80
2022-08-09T01:00:27.516Z,44.69
2022-08-09T01:03:15.274Z,44.80
2022-08-09T01:06:18.288Z,44.97
2022-08-09T01:09:20.637Z,45.02
2022-08-09T01:12:18.729Z,45.39
2022-08-09T01:15:05.848Z,45.45
2022-08-09T01:17:44.578Z,45.42
2022-08-09T01:20:50.059Z,45.40
2022-08-09T01:24:01.292Z,45.25
2022-08-09T01:26:33.319Z,45.51
2022-08-09T01:29:03.997Z,45.71
2022-08-09T01:32:28.116Z,45.66
2022-08-09T01:34:22.644Z,45.97
2022-08-09T01:36:50.874Z,45.91
2022-08-09T01:39:20.551Z,46.02
2022-08-09T01:41:53.784Z,46.26
2022-08-09T01:44:29.342Z,46.12
2022-08-09T01:46:59.870Z,46.08
2022-08-09T01:49:31.925Z,46.19
2022-08-09T01:52:14.826Z,45.99
2022-08-09T01:54:56.792Z,46.11
2022-08-09T01:57:40.048Z,46.07
2022-08-09T02:00:19.259Z,46.44
2022-08-09T02:03:02.927Z,46.38
2022-08-09T02:05:37.758Z,46.43
2022-08-09T02:08:39.794Z,46.57
2022-08-09T02:11:16.711Z,46.23
2022-08-09T02:14:06.512Z,46.65
2022-08-09T02:16:52.896Z,46.55
2022-08-09T02:19:22.901Z,46.56
2022-08-09T02:21:55.192Z,46.89
2022-08-09T02:24:27.150Z,46.68
2022-08-09T02:26:58.919Z,47.05
2022-08-09T02:29:31.375Z,47.07
2022-08-09T02:32:04.096Z,47.14
2022-08-09T02:34:40.506Z,47.11
2022-08-09T02:37:14.798Z,47.38
2022-08-09T02:40:01.714Z,47.43
2022-08-09T02:42:37.525Z,47.43
2022-08-09T02:45:16.935Z,47.32
2022-08-09T02:47:46.462Z,47.18
2022-08-09T02:50:56.157Z,47.33
2022-08-09T02:53:34.984Z,47.37
2022-08-09T02:56:04.556Z,47.21
2022-08-09T02:58:36.572Z,47.20
2022-08-09T03:01:08.168Z,47.51
2022-08-09T03:04:17.563Z,47.68
2022-08-09T03:06:27.557Z,47.49
2022-08-09T03:08:55.526Z,47.30
2022-08-09T03:12:05.239Z,47.61
2022-08-09T03:14:12.904Z,47.61
2022-08-09T03:16:47.472Z,47.60
2022-08-09T03:19:58.308Z,47.62
2022-08-09T03:22:11.728Z,47.61
2022-08-09T03:24:51.689Z,47.69
2022-08-09T03:27:21.441Z,47.84
2022-08-09T03:29:58.140Z,47.65
2022-08-09T03:32:30.521Z,47.55
2022-08-09T03:34:58.741Z,47.85
2022-08-09T03:37:56.589Z,47.72
2022-08-09T03:40:13.477Z,47.77
2022-08-09T03:42:45.510Z,47.81
2022-08-09T03:45:13.608Z,47.76
2022-08-09T03:47:46.237Z,47.81
2022-08-09T03:50:18.707Z,48.05
2022-08-09T03:52:58.267Z,47.82
2022-08-09T03:55:26.677Z,48.00
2022-08-09T03:58:03.376Z,48.39
2022-08-09T04:00:44.439Z,48.36
2022-08-09T04:03:19.609Z,48.30
2022-08-09T04:05:52.073Z,48.07
2022-08-09T04:08:19.149Z,48.31
2022-08-09T04:10:55.998Z,48.49
2022-08-09T04:14:37.503Z,48.52
2022-08-09T04:16:19.290Z,48.60
2022-08-09T04:18:47.252Z,48.40
2022-08-09T04:21:16.102Z,48.69
2022-08-09T04:23:54.540Z,48.74
2022-08-09T04:26:25.122Z,48.50
2022-08-09T04:29:10.862Z,48.74
2022-08-09T04:31:47.400Z,48.80
2022-08-09T04:34:19.014Z,48.91
2022-08-09T04:36:57.635Z,48.87
2022-08-09T04:39:24.512Z,48.99
2022-08-09T04:41:51.446Z,49.00
2022-08-09T04:44:18.488Z,48.94
2022-08-09T04:46:58.454Z,49.06
2022-08-09T04:49:53.653Z,49.02
2022-08-09T04:52:26.921Z,49.15
2022-08-09T04:54:56.531Z,49.01
2022-08-09T04:57:25.014Z,49.20
2022-08-09T04:59:54.253Z,49.10
2022-08-09T05:02:22.156Z,49.24
2022-08-09T05:04:48.989Z,49.34
2022-08-09T05:07:22.548Z,49.36
2022-08-09T05:09:50.280Z,49.25
2022-08-09T05:12:17.341Z,49.17
2022-08-09T05:14:44.159Z,48.95
2022-08-09T05:17:15.216Z,48.71
2022-08-09T05:19:58.531Z,48.24
2022-08-09T05:22:36.065Z,47.46
2022-08-09T05:25:12.212Z,46.93
2022-08-09T05:27:46.505Z,46.39
2022-08-09T05:30:17.654Z,45.71
2022-08-09T05:32:51.143Z,45.54
2022-08-09T05:35:22.085Z,44.79
2022-08-09T05:37:50.441Z,44.16
2022-08-09T05:40:18.319Z,43.82
2022-08-09T05:42:46.084Z,43.18
2022-08-09T05:45:14.507Z,42.64
2022-08-09T05:47:51.593Z,41.90
2022-08-09T05:50:36.100Z,41.67
2022-08-09T05:53:32.530Z,41.56
2022-08-09T05:55:58.465Z,41.68
2022-08-09T05:58:25.302Z,41.55
2022-08-09T06:00:53.715Z,41.37
2022-08-09T06:03:20.741Z,40.96
2022-08-09T06:05:54.512Z,40.93
2022-08-09T06:08:25.222Z,40.64
2022-08-09T06:10:57.005Z,40.11
2022-08-09T06:13:25.603Z,40.40
2022-08-09T06:15:55.295Z,40.30
2022-08-09T06:18:24.913Z,39.99
2022-08-09T06:20:57.332Z,39.64
2022-08-09T06:23:57.492Z,39.04
2022-08-09T06:26:20.143Z,39.19
2022-08-09T06:29:01.059Z,38.59
2022-08-09T06:31:40.034Z,39.13
2022-08-09T06:34:23.019Z,37.99
2022-08-09T06:36:59.441Z,37.67
2022-08-09T06:39:48.790Z,37.79
2022-08-09T06:42:24.886Z,37.56
2022-08-09T06:44:55.557Z,37.20
2022-08-09T06:47:24.615Z,36.88
2022-08-09T06:50:13.571Z,36.53
2022-08-09T06:52:48.569Z,36.17
2022-08-09T06:55:23.173Z,36.24
2022-08-09T06:58:02.795Z,35.94
2022-08-09T07:00:49.456Z,35.34
2022-08-09T07:03:27.742Z,35.02
2022-08-09T07:06:03.677Z,35.03
2022-08-09T07:08:33.453Z,34.93
2022-08-09T07:11:03.534Z,34.63
2022-08-09T07:13:31.006Z,34.56
2022-08-09T07:16:42.790Z,34.26
2022-08-09T07:18:59.887Z,33.88
2022-08-09T07:21:26.680Z,33.96
2022-08-09T07:23:58.524Z,34.09
2022-08-09T07:26:25.960Z,34.63
2022-08-09T07:29:09.310Z,34.66
2022-08-09T07:31:45.544Z,34.79
2022-08-09T07:34:20.143Z,34.38
2022-08-09T07:36:49.454Z,34.24
2022-08-09T07:39:19.771Z,34.56
2022-08-09T07:41:53.909Z,34.70
2022-08-09T07:44:30.296Z,35.31
2022-08-09T07:47:09.867Z,35.26
2022-08-09T07:49:52.414Z,35.53
2022-08-09T07:52:24.052Z,35.56
2022-08-09T07:54:51.573Z,35.60
2022-08-09T07:57:20.978Z,35.44
2022-08-09T08:00:02.676Z,35.39
2022-08-09T08:02:30.833Z,35.44
2022-08-09T08:04:57.870Z,35.14
2022-08-09T08:08:42.507Z,35.37
2022-08-09T08:10:12.690Z,35.14
2022-08-09T08:12:45.019Z,34.82
2022-08-09T08:15:17.305Z,34.19
2022-08-09T08:17:53.211Z,34.18
2022-08-09T08:20:29.064Z,33.71
2022-08-09T08:23:03.533Z,33.71
2022-08-09T08:25:44.546Z,33.52
2022-08-09T08:28:14.978Z,32.80
2022-08-09T08:30:45.733Z,32.78
2022-08-09T08:33:23.012Z,32.87
2022-08-09T08:36:00.266Z,32.48
2022-08-09T08:38:29.527Z,32.47
2022-08-09T08:40:57.746Z,32.57
2022-08-09T08:43:27.247Z,32.75
2022-08-09T08:46:31.548Z,32.95
2022-08-09T08:48:53.596Z,33.27
2022-08-09T08:51:22.825Z,32.99
2022-08-09T08:54:03.530Z,33.57
2022-08-09T08:56:43.359Z,33.53
2022-08-09T08:59:19.786Z,33.53
2022-08-09T09:01:56.860Z,33.48
2022-08-09T09:04:37.787Z,33.44
2022-08-09T09:07:15.787Z,33.62
2022-08-09T09:10:01.454Z,32.88
2022-08-09T09:12:34.217Z,33.00
2022-08-09T09:15:06.009Z,32.81
2022-08-09T09:17:49.212Z,32.79
2022-08-09T09:20:21.666Z,32.87
2022-08-09T09:23:02.213Z,32.81
2022-08-09T09:26:01.911Z,32.89
2022-08-09T09:29:01.780Z,33.09
2022-08-09T09:32:03.373Z,33.32
2022-08-09T09:34:18.092Z,33.25
2022-08-09T09:36:51.157Z,32.85
2022-08-09T09:39:23.589Z,33.10
2022-08-09T09:42:27.606Z,33.19
2022-08-09T09:45:14.478Z,34.34
2022-08-09T09:47:56.409Z,33.33
2022-08-09T09:50:49.808Z,33.45
2022-08-09T09:53:57.846Z,33.25
2022-08-09T09:56:20.167Z,33.43
2022-08-09T09:58:58.201Z,33.13
2022-08-09T10:01:31.013Z,32.98
2022-08-09T10:04:22.982Z,33.05
2022-08-09T10:06:57.548Z,32.65
2022-08-09T10:09:24.410Z,32.65
2022-08-09T10:12:14.523Z,32.99
2022-08-09T10:14:49.364Z,32.63
2022-08-09T10:17:50.875Z,32.37
2022-08-09T10:20:32.875Z,32.31
2022-08-09T10:23:22.028Z,32.60
2022-08-09T10:26:07.414Z,32.13
2022-08-09T10:28:40.230Z,31.82
2022-08-09T10:34:09.204Z,31.80
2022-08-09T10:36:50.012Z,32.22
2022-08-09T10:39:19.624Z,32.03
2022-08-09T10:41:47.564Z,31.96
2022-08-09T10:44:19.350Z,31.94
2022-08-09T10:47:20.569Z,31.79
2022-08-09T10:51:03.456Z,31.58
2022-08-09T10:53:39.516Z,31.25
2022-08-09T10:56:25.474Z,31.18
2022-08-09T10:58:55.119Z,31.23
2022-08-09T11:03:13.503Z,31.53
2022-08-09T11:04:31.266Z,30.82
2022-08-09T11:07:00.311Z,30.74
2022-08-09T11:09:48.158Z,31.07
2022-08-09T11:12:29.763Z,30.79
2022-08-09T11:15:01.510Z,30.80
2022-08-09T11:17:32.560Z,30.67
2022-08-09T11:20:22.101Z,31.09
2022-08-09T11:22:57.252Z,30.64
2022-08-09T11:25:44.759Z,30.78
2022-08-09T11:28:38.704Z,30.98
2022-08-09T11:31:49.287Z,31.13
2022-08-09T11:34:44.049Z,30.87
2022-08-09T11:37:25.804Z,30.67
2022-08-09T11:40:07.649Z,30.57
2022-08-09T11:42:53.194Z,30.59
2022-08-09T11:45:42.059Z,30.12
2022-08-09T11:48:19.376Z,30.34
2022-08-09T11:52:48.497Z,29.96
2022-08-09T11:53:58.759Z,29.77
2022-08-09T11:56:41.788Z,29.44
2022-08-09T11:59:11.692Z,29.52
2022-08-09T12:02:17.229Z,29.40
2022-08-09T12:04:37.148Z,29.66
2022-08-09T12:07:07.825Z,29.66
2022-08-09T12:09:36.459Z,29.36
2022-08-09T12:12:28.796Z,29.88
2022-08-09T12:15:04.341Z,29.77
2022-08-09T12:17:44.283Z,30.01
2022-08-09T12:20:23.778Z,29.71
2022-08-09T12:22:57.743Z,29.53
2022-08-09T12:25:35.992Z,29.44
2022-08-09T12:29:14.070Z,29.72
2022-08-09T12:31:11.210Z,29.67
2022-08-09T12:34:00.973Z,29.71
2022-08-09T12:36:33.748Z,29.08
2022-08-09T12:39:03.607Z,28.59
2022-08-09T12:41:39.159Z,28.61
2022-08-09T12:44:10.004Z,28.79
2022-08-09T12:46:48.563Z,28.14
2022-08-09T12:49:17.143Z,28.50
2022-08-09T12:52:01.147Z,28.09
2022-08-09T12:55:03.176Z,28.19
2022-08-09T12:57:46.959Z,27.76
2022-08-09T13:00:25.583Z,27.83
2022-08-09T13:02:58.855Z,27.61
2022-08-09T13:05:51.767Z,27.48
2022-08-09T13:08:40.596Z,27.41
2022-08-09T13:11:22.743Z,27.42
2022-08-09T13:14:40.697Z,27.53
2022-08-09T13:16:49.391Z,27.49
2022-08-09T13:20:09.096Z,27.06
2022-08-09T13:22:36.658Z,26.97
2022-08-09T13:25:13.866Z,26.92
2022-08-09T13:27:48.709Z,26.52
2022-08-09T13:30:48.851Z,25.91
2022-08-09T13:33:11.558Z,26.26
2022-08-09T13:36:24.665Z,26.83
2022-08-09T13:38:32.984Z,27.03
2022-08-09T13:41:58.214Z,26.54
2022-08-09T13:44:13.528Z,26.64
2022-08-09T13:47:29.049Z,26.06
2022-08-09T13:49:37.802Z,26.20
2022-08-09T13:52:09.026Z,26.16
2022-08-09T13:54:41.725Z,26.41
2022-08-09T13:57:35.478Z,26.28
2022-08-09T14:00:04.983Z,26.33
2022-08-09T14:02:32.915Z,25.96
2022-08-09T14:05:03.456Z,26.03
2022-08-09T14:07:41.109Z,25.98
2022-08-09T14:10:17.523Z,25.59
2022-08-09T14:12:56.814Z,26.10
2022-08-09T14:16:10.492Z,25.50
2022-08-09T14:18:19.772Z,25.57
2022-08-09T14:20:57.025Z,25.28
2022-08-09T14:23:39.958Z,25.15
2022-08-09T14:26:07.888Z,25.07
2022-08-09T14:28:37.408Z,25.40
2022-08-09T14:31:04.367Z,24.95
2022-08-09T14:33:31.309Z,24.24
2022-08-09T14:36:20.725Z,24.65
2022-08-09T14:38:52.606Z,24.26
2022-08-09T14:41:26.762Z,23.99
2022-08-09T14:44:07.476Z,23.76
2022-08-09T14:47:03.254Z,23.91
2022-08-09T14:49:26.756Z,24.20
2022-08-09T14:51:58.914Z,23.93
2022-08-09T14:54:27.675Z,24.13
2022-08-09T14:56:58.969Z,24.74
2022-08-09T14:59:28.599Z,24.77
2022-08-09T15:01:55.989Z,24.37
2022-08-09T15:04:23.684Z,24.57
2022-08-09T15:06:51.749Z,24.73
2022-08-09T15:10:03.517Z,24.55
2022-08-09T15:12:08.120Z,24.59
2022-08-09T15:14:38.577Z,24.15
2022-08-09T15:17:09.643Z,24.81
2022-08-09T15:19:37.088Z,24.52
2022-08-09T15:22:26.174Z,24.62
2022-08-09T15:24:54.389Z,24.75
2022-08-09T15:27:21.943Z,24.89
2022-08-09T15:30:57.552Z,24.35
2022-08-09T15:32:36.458Z,24.37
2022-08-09T15:35:39.987Z,24.19
2022-08-09T15:38:03.983Z,24.79
2022-08-09T15:40:43.703Z,24.65
2022-08-09T15:43:13.624Z,24.52
2022-08-09T15:46:08.046Z,24.23
2022-08-09T15:48:31.739Z,24.06
2022-08-09T15:51:00.707Z,24.12
2022-08-09T15:54:04.424Z,24.21
2022-08-09T15:56:29.039Z,24.00
2022-08-09T15:58:58.593Z,24.62
2022-08-09T16:01:25.957Z,24.43
2022-08-09T16:03:52.761Z,24.76
2022-08-09T16:06:29.545Z,24.36
2022-08-09T16:09:04.873Z,24.66
2022-08-09T16:11:33.226Z,24.48
2022-08-09T16:14:06.104Z,24.51
2022-08-09T16:16:41.883Z,24.33
2022-08-09T16:19:13.467Z,24.53
2022-08-09T16:21:43.056Z,24.24
2022-08-09T16:24:20.021Z,24.25
2022-08-09T16:27:01.258Z,24.54
2022-08-09T16:29:36.987Z,24.36
2022-08-09T16:32:17.804Z,24.31
2022-08-09T16:34:55.170Z,24.67
2022-08-09T16:37:55.257Z,24.63
2022-08-09T16:40:13.319Z,24.72
2022-08-09T16:42:45.074Z,24.55
2022-08-09T16:45:17.446Z,24.78
2022-08-09T16:48:39.644Z,24.79
2022-08-09T16:50:34.414Z,24.81
2022-08-09T16:53:02.621Z,24.67
2022-08-09T16:55:58.255Z,25.02
2022-08-09T16:58:18.435Z,25.00
2022-08-09T17:00:46.693Z,24.57
2022-08-09T17:03:22.192Z,24.72
2022-08-09T17:06:06.614Z,24.75
2022-08-09T17:08:44.245Z,24.82
2022-08-09T17:11:24.457Z,24.83
2022-08-09T17:14:01.312Z,24.82
2022-08-09T17:16:28.847Z,24.82
2022-08-09T17:18:56.540Z,24.34
2022-08-09T17:21:25.232Z,24.56
2022-08-09T17:24:26.990Z,24.39
2022-08-09T17:26:42.945Z,24.68
2022-08-09T17:29:20.267Z,24.87
2022-08-09T17:31:49.328Z,24.76
2022-08-09T17:35:00.890Z,24.73
2022-08-09T17:37:04.282Z,24.88
2022-08-09T17:39:52.933Z,24.75
2022-08-09T17:42:41.337Z,24.96
2022-08-09T17:45:06.739Z,24.67
2022-08-09T17:47:49.947Z,25.03
2022-08-09T17:50:35.972Z,25.21
2022-08-09T17:53:19.688Z,25.18
2022-08-09T17:55:54.083Z,25.50
2022-08-09T17:58:24.335Z,25.47
2022-08-09T18:00:58.391Z,25.30
2022-08-09T18:03:26.011Z,25.72
2022-08-09T18:05:56.241Z,25.81
2022-08-09T18:08:27.677Z,25.53
2022-08-09T18:11:02.117Z,25.78
2022-08-09T18:13:38.947Z,26.00
2022-08-09T18:16:29.133Z,25.94
2022-08-09T18:18:59.387Z,26.09
2022-08-09T18:21:40.728Z,26.13
2022-08-09T18:24:14.441Z,26.06
2022-08-09T18:26:46.349Z,26.17
2022-08-09T18:30:34.597Z,26.33
2022-08-09T18:32:07.215Z,26.24
2022-08-09T18:34:36.245Z,26.38
2022-08-09T18:37:04.074Z,26.52
2022-08-09T18:39:32.295Z,26.57
2022-08-09T18:42:05.294Z,26.62
2022-08-09T18:44:35.530Z,26.73
2022-08-09T18:47:08.155Z,26.66
2022-08-09T18:49:43.241Z,27.10
2022-08-09T18:52:15.878Z,26.93
2022-08-09T18:54:49.641Z,26.83
2022-08-09T18:57:22.296Z,27.17
2022-08-09T18:59:55.500Z,27.07
2022-08-09T19:02:32.265Z,27.37
2022-08-09T19:05:14.762Z,27.43
2022-08-09T19:08:03.652Z,27.45
2022-08-09T19:10:37.280Z,27.37
2022-08-09T19:13:20.979Z,27.48
2022-08-09T19:15:52.594Z,27.78
2022-08-09T19:18:33.975Z,27.57
2022-08-09T19:21:10.489Z,27.85
2022-08-09T19:24:32.452Z,27.91
2022-08-09T19:26:32.077Z,28.15
2022-08-09T19:29:03.265Z,28.46
2022-08-09T19:31:45.546Z,28.12
2022-08-09T19:34:21.583Z,28.10
2022-08-09T19:36:54.356Z,28.30
2022-08-09T19:39:29.106Z,28.64
2022-08-09T19:42:14.524Z,28.74
2022-08-09T19:44:49.522Z,28.93
2022-08-09T19:47:22.591Z,29.09
2022-08-09T19:50:07.978Z,29.02
2022-08-09T19:52:37.356Z,29.00
2022-08-09T19:55:17.462Z,29.20
2022-08-09T19:57:46.388Z,29.25
2022-08-09T20:00:16.159Z,29.72
2022-08-09T20:04:07.616Z,29.84
2022-08-09T20:05:46.072Z,29.61
2022-08-09T20:08:16.157Z,29.64
2022-08-09T20:10:52.260Z,29.90
2022-08-09T20:13:20.708Z,29.84
2022-08-09T20:16:38.603Z,29.89
2022-08-09T20:18:35.368Z,30.13
2022-08-09T20:21:03.208Z,30.06
2022-08-09T20:23:38.496Z,30.39
2022-08-09T20:26:09.811Z,30.57
2022-08-09T20:28:47.623Z,30.52
2022-08-09T20:31:15.847Z,30.73
2022-08-09T20:33:43.983Z,30.85
2022-08-09T20:36:11.551Z,30.89
2022-08-09T20:41:34.847Z,31.19
2022-08-09T20:44:10.555Z,31.31
2022-08-09T20:46:42.729Z,31.27
2022-08-09T20:49:13.067Z,31.04
2022-08-09T20:51:42.159Z,31.38
2022-08-09T20:54:16.472Z,31.16
2022-08-09T20:56:46.927Z,31.59
2022-08-09T20:59:17.276Z,31.76
2022-08-09T21:01:51.286Z,31.91
2022-08-09T21:05:51.484Z,31.78
2022-08-09T21:07:11.533Z,31.61
2022-08-09T21:09:45.918Z,31.85
2022-08-09T21:12:23.444Z,31.76
2022-08-09T21:14:50.301Z,32.09
2022-08-09T21:18:29.569Z,32.00
2022-08-09T21:20:22.342Z,32.43
2022-08-09T21:22:54.251Z,32.32
2022-08-09T21:25:44.077Z,32.05
2022-08-09T21:28:33.602Z,31.98
2022-08-09T21:31:19.456Z,32.36
2022-08-09T21:33:50.944Z,32.13
2022-08-09T21:36:23.168Z,32.33
2022-08-09T21:38:57.273Z,32.49
2022-08-09T21:42:03.526Z,32.96
2022-08-09T21:44:15.485Z,32.68
2022-08-09T21:47:01.873Z,32.83
2022-08-09T21:49:28.826Z,32.84
2022-08-09T21:52:17.180Z,33.24
2022-08-09T21:55:02.782Z,33.32
2022-08-09T21:57:38.713Z,33.00
2022-08-09T22:00:33.812Z,33.10
2022-08-09T22:03:07.851Z,33.43
2022-08-09T22:05:46.220Z,33.01
2022-08-09T22:08:18.196Z,33.30
2022-08-09T22:11:49.773Z,33.41
2022-08-09T22:13:36.970Z,33.44
2022-08-09T22:16:09.239Z,33.30
2022-08-09T22:18:54.553Z,33.44
2022-08-09T22:21:45.057Z,33.77
2022-08-09T22:24:17.000Z,33.97
2022-08-09T22:26:51.012Z,33.82
2022-08-09T22:29:19.288Z,33.55
2022-08-09T22:31:56.517Z,34.06
2022-08-09T22:34:25.723Z,34.20
2022-08-09T22:36:57.670Z,34.25
2022-08-09T22:39:55.951Z,34.62
2022-08-09T22:42:21.380Z,34.93
2022-08-09T22:45:00.337Z,35.05
2022-08-09T22:48:12.246Z,34.99
2022-08-09T22:50:30.640Z,35.13
2022-08-09T22:52:58.829Z,35.28
2022-08-09T22:55:39.624Z,35.21
2022-08-09T22:58:31.082Z,35.42
2022-08-09T23:01:04.248Z,35.71
2022-08-09T23:04:03.378Z,35.77
2022-08-09T23:06:35.230Z,36.09
2022-08-09T23:09:06.912Z,35.90
2022-08-09T23:11:33.737Z,36.17
2022-08-09T23:14:00.688Z,36.50
2022-08-09T23:16:27.476Z,36.29
2022-08-09T23:18:54.570Z,36.61
2022-08-09T23:21:25.113Z,36.59
2022-08-09T23:24:06.605Z,36.88
2022-08-09T23:26:36.034Z,36.90
2022-08-09T23:29:05.040Z,37.02
2022-08-09T23:31:32.180Z,37.06
2022-08-09T23:33:59.506Z,37.04
2022-08-09T23:36:26.828Z,37.15
2022-08-09T23:38:53.663Z,37.42
2022-08-09T23:41:28.530Z,37.62
2022-08-09T23:44:00.748Z,37.70
2022-08-09T23:46:29.013Z,37.75
2022-08-09T23:48:56.794Z,37.77
2022-08-09T23:51:23.979Z,37.74
2022-08-09T23:53:52.453Z,37.87
2022-08-09T23:56:53.216Z,38.02
2022-08-09T23:59:09.028Z,38.19
